Time;durP1;ratioP1;P1;durP2;ratioP2;P2;SDS_P1;SDS_P2;PMS_P1;PMS_P2;Temp;Humidity;BMP_temperature;BMP_pressure;BME280_temperature;BME280_humidity;BME280_pressure;Samples;Min_cycle;Max_cycle;Signal;HPM_P1;HPM_P2
2022/04/15 00:00:24;;;;;;;;;;;;;;;9.06;57.50;99872.06;4844994;29;19925;-72
2022/04/15 00:02:53;;;;;;;;;;;;;;;9.09;57.26;99870.41;4828584;29;20295;-71
2022/04/15 00:08:00;;;;;;;;;;;;;;;9.04;57.42;99872.06;4844898;29;19924;-72
2022/04/15 00:10:29;;;;;;;;;;;;;;;9.05;57.11;99863.56;4845065;29;20260;-71
2022/04/15 00:12:58;;;;;;;;;;;;;;;9.06;57.89;99866.97;4843897;29;20401;-71
2022/04/15 00:15:29;;;;;;;;;;;;;;;9.08;57.91;99867.84;4844717;29;20299;-71
2022/04/15 00:17:58;;;;;;;;;;;;;;;9.06;57.60;99869.53;4844750;29;19925;-71
2022/04/15 00:20:27;;;;;;;;;;;;;;;9.05;57.49;99871.22;4844949;29;19988;-71
2022/04/15 00:22:58;;;;;;;;;;;;;;;9.06;57.51;99864.44;4844732;29;19976;-71
2022/04/15 00:25:27;;;;;;;;;;;;;;;9.05;57.58;99863.56;4844579;29;20303;-71
2022/04/15 00:27:56;;;;;;;;;;;;;;;9.02;56.96;99862.72;4844478;29;19924;-71
2022/04/15 00:30:25;;;;;;;;;;;;;;;8.94;58.37;99866.88;4844525;29;19931;-71
2022/04/15 00:32:55;;;;;;;;;;;;;;;8.74;58.38;99867.53;4844416;29;19929;-71
2022/04/15 00:35:24;;;;;;;;;;;;;;;8.70;58.65;99859.88;4844138;29;19924;-71
2022/04/15 00:37:52;;;;;;;;;;;;;;;8.58;58.97;99858.06;4844665;29;20393;-71
2022/04/15 00:40:21;;;;;;;;;;;;;;;8.44;60.40;99862.16;4844302;29;19924;-71
2022/04/15 00:42:49;;;;;;;;;;;;;;;8.35;59.85;99868.84;4827805;29;20293;-71
2022/04/15 00:45:18;;;;;;;;;;;;;;;8.18;60.29;99860.13;4844149;29;19925;-71
2022/04/15 00:47:48;;;;;;;;;;;;;;;8.11;61.07;99857.50;4844300;29;19924;-71
2022/04/15 00:50:19;;;;;;;;;;;;;;;8.18;61.45;99853.38;4844088;29;19931;-71
2022/04/15 00:52:48;;;;;;;;;;;;;;;8.21;61.03;99857.59;4844058;29;20012;-71
2022/04/15 00:55:18;;;;;;;;;;;;;;;8.22;61.06;99849.16;4844003;29;19963;-71
2022/04/15 00:57:50;;;;;;;;;;;;;;;7.96;61.65;99852.25;4844310;29;19932;-71
2022/04/15 01:00:19;;;;;;;;;;;;;;;7.91;61.78;99848.81;4844232;29;20324;-71
2022/04/15 01:02:48;;;;;;;;;;;;;;;7.85;62.25;99852.94;4827719;29;19924;-71
2022/04/15 01:05:18;;;;;;;;;;;;;;;7.81;62.91;99848.66;4843993;29;19963;-71
2022/04/15 01:07:48;;;;;;;;;;;;;;;7.87;61.73;99836.88;4844145;29;20370;-71
2022/04/15 01:10:17;;;;;;;;;;;;;;;7.75;62.46;99846.88;4827869;29;19931;-71
2022/04/15 01:12:48;;;;;;;;;;;;;;;7.79;63.19;99843.56;4844040;29;19930;-71
2022/04/15 01:15:36;;;;;;;;;;;;;;;7.78;62.49;99849.47;4843701;29;19931;-71
2022/04/15 01:18:05;;;;;;;;;;;;;;;7.71;63.14;99844.28;4843617;29;19981;-71
2022/04/15 01:20:36;;;;;;;;;;;;;;;7.72;63.25;99846.00;4843628;29;20015;-71
2022/04/15 01:23:07;;;;;;;;;;;;;;;7.71;64.12;99844.28;4843518;29;19932;-71
2022/04/15 01:25:36;;;;;;;;;;;;;;;7.68;63.34;99850.16;4843549;29;19932;-71
2022/04/15 01:28:05;;;;;;;;;;;;;;;7.70;63.52;99845.97;4843790;29;19931;-71
2022/04/15 01:30:34;;;;;;;;;;;;;;;7.71;63.80;99840.06;4843477;29;19925;-71
2022/04/15 01:33:03;;;;;;;;;;;;;;;7.75;63.07;99849.41;4843420;29;19930;-71
2022/04/15 01:35:34;;;;;;;;;;;;;;;7.66;63.79;99850.97;4843752;29;20380;-71
2022/04/15 01:38:04;;;;;;;;;;;;;;;7.66;64.14;99848.44;4843447;29;19931;-71
2022/04/15 01:40:34;;;;;;;;;;;;;;;7.66;63.12;99839.13;4844011;29;19947;-71
2022/04/15 01:43:03;;;;;;;;;;;;;;;7.66;64.08;99836.59;4843331;29;19924;-71
2022/04/15 01:45:33;;;;;;;;;;;;;;;7.55;63.59;99848.31;4843584;29;20356;-71
2022/04/15 01:48:02;;;;;;;;;;;;;;;7.48;63.63;99830.41;4843198;29;19982;-71
2022/04/15 01:50:31;;;;;;;;;;;;;;;7.44;63.97;99834.59;4843245;29;19924;-71
2022/04/15 01:52:59;;;;;;;;;;;;;;;7.40;63.55;99827.78;4843460;29;20000;-71
2022/04/15 01:55:29;;;;;;;;;;;;;;;7.47;64.17;99829.56;4843453;29;20324;-71
2022/04/15 01:57:59;;;;;;;;;;;;;;;7.60;63.78;99821.28;4843060;29;19925;-71
2022/04/15 02:00:28;;;;;;;;;;;;;;;7.62;63.83;99831.47;4843567;29;19931;-71
2022/04/15 02:02:57;;;;;;;;;;;;;;;7.53;63.64;99824.59;4843431;29;19924;-71
2022/04/15 02:05:26;;;;;;;;;;;;;;;7.54;64.20;99826.28;4843033;29;20022;-71
2022/04/15 02:07:55;;;;;;;;;;;;;;;7.56;64.30;99818.69;4843511;29;20018;-71
2022/04/15 02:10:23;;;;;;;;;;;;;;;7.55;64.28;99833.06;4843098;29;19936;-71
2022/04/15 02:12:52;;;;;;;;;;;;;;;7.61;63.63;99827.19;4843365;29;19924;-71
2022/04/15 02:15:22;;;;;;;;;;;;;;;7.70;63.41;99829.88;4843283;29;19924;-71
2022/04/15 02:17:51;;;;;;;;;;;;;;;7.78;63.41;99830.81;4842958;29;19925;-71
2022/04/15 02:20:19;;;;;;;;;;;;;;;7.83;63.07;99827.50;4843272;29;20352;-71
2022/04/15 02:22:48;;;;;;;;;;;;;;;7.85;62.48;99823.31;4842920;29;19932;-71
2022/04/15 02:25:17;;;;;;;;;;;;;;;7.87;62.86;99824.16;4842841;29;19932;-71
2022/04/15 02:27:45;;;;;;;;;;;;;;;7.88;62.64;99815.72;4843955;29;19946;-71
2022/04/15 02:30:14;;;;;;;;;;;;;;;7.91;62.48;99812.38;4842940;29;19932;-71
2022/04/15 02:32:44;;;;;;;;;;;;;;;7.96;62.45;99808.19;4842831;29;19980;-71
2022/04/15 02:35:14;;;;;;;;;;;;;;;7.98;62.58;99804.84;4843808;29;19932;-71
2022/04/15 02:37:43;;;;;;;;;;;;;;;7.98;62.15;99803.97;4846466;29;19995;-71
2022/04/15 02:40:12;;;;;;;;;;;;;;;7.86;62.36;99803.84;4846605;29;19924;-71
2022/04/15 02:42:41;;;;;;;;;;;;;;;7.81;63.01;99805.47;4846316;29;20012;-71
2022/04/15 02:45:10;;;;;;;;;;;;;;;7.76;62.88;99812.16;4846320;29;20359;-71
2022/04/15 02:47:40;;;;;;;;;;;;;;;7.68;62.44;99818.84;4846554;29;19924;-71
2022/04/15 02:50:10;;;;;;;;;;;;;;;7.71;62.46;99816.34;4846533;29;20264;-71
2022/04/15 02:52:39;;;;;;;;;;;;;;;7.71;62.75;99804.50;4829798;29;19924;-71
2022/04/15 02:55:08;;;;;;;;;;;;;;;7.69;62.40;99806.16;4846141;29;19928;-71
2022/04/15 02:57:37;;;;;;;;;;;;;;;7.72;63.24;99801.13;4846396;29;20287;-71
2022/04/15 03:00:06;;;;;;;;;;;;;;;7.76;62.68;99802.00;4846011;29;19931;-71
2022/04/15 03:02:35;;;;;;;;;;;;;;;7.69;63.11;99801.09;4846628;29;19925;-71
2022/04/15 03:05:06;;;;;;;;;;;;;;;7.70;62.66;99792.63;4846057;29;19992;-71
2022/04/15 03:07:36;;;;;;;;;;;;;;;7.76;62.86;99791.84;4846194;29;19932;-71
2022/04/15 03:10:06;;;;;;;;;;;;;;;7.79;62.93;99787.66;4829457;29;19924;-71
2022/04/15 03:12:35;;;;;;;;;;;;;;;7.71;63.48;99789.25;4846115;29;20383;-71
2022/04/15 03:15:04;;;;;;;;;;;;;;;7.66;63.24;99783.25;4845737;29;20332;-71
2022/04/15 03:17:33;;;;;;;;;;;;;;;7.67;63.24;99774.81;4845754;29;20367;-71
2022/04/15 03:20:02;;;;;;;;;;;;;;;7.68;62.61;99780.75;4845631;29;19931;-71
2022/04/15 03:22:35;;;;;;;;;;;;;;;7.67;63.32;99782.44;4845714;29;19932;-71
2022/04/15 03:25:06;;;;;;;;;;;;;;;7.67;63.07;99782.44;4845941;29;20282;-71
2022/04/15 03:27:35;;;;;;;;;;;;;;;7.59;63.31;99784.00;4845908;29;20371;-71
2022/04/15 03:30:04;;;;;;;;;;;;;;;7.59;63.49;99784.00;4845497;29;19931;-71
2022/04/15 03:32:33;;;;;;;;;;;;;;;7.66;63.39;99785.78;4845866;29;19984;-71
2022/04/15 03:35:01;;;;;;;;;;;;;;;7.66;63.86;99793.41;4845503;29;20014;-71
2022/04/15 03:37:30;;;;;;;;;;;;;;;7.69;64.19;99800.22;4845203;29;20023;-71
2022/04/15 03:39:59;;;;;;;;;;;;;;;7.76;63.57;99800.31;4845589;29;19924;-71
2022/04/15 03:42:29;;;;;;;;;;;;;;;7.83;63.55;99798.69;4845347;29;19924;-71
2022/04/15 03:44:58;;;;;;;;;;;;;;;7.88;63.06;99805.56;4845524;29;19928;-71
2022/04/15 03:47:26;;;;;;;;;;;;;;;7.91;63.68;99803.06;4844039;29;19998;-71
2022/04/15 03:49:55;;;;;;;;;;;;;;;8.02;63.00;99806.56;4845175;29;20379;-71
2022/04/15 03:52:26;;;;;;;;;;;;;;;8.13;63.34;99812.63;4845521;29;20269;-71
2022/04/15 03:54:55;;;;;;;;;;;;;;;8.23;63.32;99812.75;4829034;29;19924;-71
2022/04/15 03:57:23;;;;;;;;;;;;;;;8.30;63.26;99812.00;4845095;29;19947;-71
2022/04/15 03:59:54;;;;;;;;;;;;;;;8.39;63.04;99801.91;4845051;29;19925;-71
2022/04/15 04:02:22;;;;;;;;;;;;;;;8.48;62.38;99807.06;4845340;29;20288;-71
2022/04/15 04:04:51;;;;;;;;;;;;;;;8.57;62.17;99808.00;4844967;29;20052;-71
2022/04/15 04:07:20;;;;;;;;;;;;;;;8.63;62.60;99817.41;4844891;29;19924;-71
2022/04/15 04:09:48;;;;;;;;;;;;;;;8.66;61.76;99812.34;4845186;29;19935;-71
2022/04/15 04:12:17;;;;;;;;;;;;;;;8.68;62.00;99810.66;4828897;29;19963;-71
2022/04/15 04:14:46;;;;;;;;;;;;;;;8.72;61.29;99812.38;4844781;29;19925;-71
2022/04/15 04:17:16;;;;;;;;;;;;;;;8.74;62.57;99815.78;4844682;29;19925;-71
2022/04/15 04:19:44;;;;;;;;;;;;;;;8.67;63.00;99814.03;4828364;29;19924;-71
2022/04/15 04:22:19;;;;;;;;;;;;;;;8.64;63.86;99819.94;4844943;29;19951;-71
2022/04/15 04:24:48;;;;;;;;;;;;;;;8.62;63.77;99820.78;4844575;29;19924;-71
2022/04/15 04:27:16;;;;;;;;;;;;;;;8.70;63.55;99803.91;4845139;29;20287;-71
2022/04/15 04:29:45;;;;;;;;;;;;;;;8.69;63.11;99802.19;4828849;29;19940;-71
2022/04/15 04:32:16;;;;;;;;;;;;;;;8.47;63.02;99810.47;4844659;29;20375;-71
2022/04/15 04:34:45;;;;;;;;;;;;;;;8.40;63.68;99813.75;4844469;29;19940;-71
2022/04/15 04:37:14;;;;;;;;;;;;;;;8.39;63.20;99814.63;4844254;29;19925;-71
2022/04/15 04:39:43;;;;;;;;;;;;;;;8.40;63.46;99826.47;4844687;29;19952;-71
2022/04/15 04:42:12;;;;;;;;;;;;;;;8.34;62.74;99828.97;4844490;29;19947;-71
2022/04/15 04:44:41;;;;;;;;;;;;;;;8.32;62.50;99833.19;4844750;29;19925;-71
2022/04/15 04:47:10;;;;;;;;;;;;;;;8.38;62.33;99830.69;4844198;29;19928;-71
2022/04/15 04:49:40;;;;;;;;;;;;;;;8.45;61.97;99835.00;4844163;29;20097;-71
2022/04/15 04:52:09;;;;;;;;;;;;;;;8.51;62.02;99835.94;4844144;29;20325;-71
2022/04/15 04:54:39;;;;;;;;;;;;;;;8.61;61.67;99835.19;4844054;29;19925;-71
2022/04/15 04:57:07;;;;;;;;;;;;;;;8.74;61.15;99836.16;4844010;29;20015;-71
2022/04/15 04:59:36;;;;;;;;;;;;;;;8.85;61.33;99828.63;4843619;29;19924;-71
2022/04/15 05:02:05;;;;;;;;;;;;;;;8.90;60.15;99832.88;4844319;29;20299;-71
2022/04/15 05:04:34;;;;;;;;;;;;;;;8.89;59.95;99835.44;4843769;29;19930;-71
2022/04/15 05:07:05;;;;;;;;;;;;;;;9.00;59.93;99849.13;4843846;29;19924;-71
2022/04/15 05:09:33;;;;;;;;;;;;;;;9.10;61.00;99853.41;4843873;29;19976;-71
2022/04/15 05:12:02;;;;;;;;;;;;;;;9.14;60.56;99835.63;4843789;29;19928;-71
2022/04/15 05:14:31;;;;;;;;;;;;;;;9.16;60.48;99835.66;4843655;29;19924;-71
2022/04/15 05:16:59;;;;;;;;;;;;;;;9.22;60.16;99851.81;4843697;29;19929;-71
2022/04/15 05:19:28;;;;;;;;;;;;;;;9.36;60.68;99850.22;4843666;29;19924;-71
2022/04/15 05:21:56;;;;;;;;;;;;;;;9.43;61.32;99864.72;4843878;29;20333;-71
2022/04/15 05:24:26;;;;;;;;;;;;;;;9.53;61.33;99868.16;4843891;29;19979;-71
2022/04/15 05:26:55;;;;;;;;;;;;;;;9.57;60.92;99858.88;4844403;29;20348;-71
2022/04/15 05:29:24;;;;;;;;;;;;;;;9.60;60.45;99866.53;4827531;29;19924;-72
2022/04/15 05:31:53;;;;;;;;;;;;;;;9.72;60.86;99880.19;4843576;29;19932;-70
2022/04/15 05:34:21;;;;;;;;;;;;;;;9.78;60.65;99869.16;4843401;29;19924;-72
2022/04/15 05:36:50;;;;;;;;;;;;;;;9.84;60.54;99880.25;4843349;29;20276;-70
2022/04/15 05:39:19;;;;;;;;;;;;;;;9.89;60.51;99875.16;4843721;29;19924;-70
2022/04/15 05:41:49;;;;;;;;;;;;;;;9.97;61.21;99889.69;4843394;29;20387;-71
2022/04/15 05:44:18;;;;;;;;;;;;;;;10.04;59.93;99888.00;4843338;29;19931;-71
2022/04/15 05:46:46;;;;;;;;;;;;;;;10.15;59.05;99891.47;4843244;29;19925;-72
2022/04/15 05:49:16;;;;;;;;;;;;;;;10.21;59.03;99901.72;4843265;29;20372;-70
2022/04/15 05:51:45;;;;;;;;;;;;;;;10.27;58.86;99911.94;4843559;29;19930;-71
2022/04/15 05:54:14;;;;;;;;;;;;;;;10.31;59.10;99928.13;4843846;29;19997;-70
2022/04/15 05:56:42;;;;;;;;;;;;;;;10.36;59.23;99932.41;4843163;29;19941;-70
2022/04/15 05:59:13;;;;;;;;;;;;;;;10.44;58.59;99935.81;4843161;29;19931;-70
2022/04/15 06:01:41;;;;;;;;;;;;;;;10.46;58.29;99923.09;4843519;29;20375;-70
2022/04/15 06:04:10;;;;;;;;;;;;;;;10.47;57.76;99928.19;4827299;29;20022;-70
2022/04/15 06:06:38;;;;;;;;;;;;;;;10.53;57.54;99940.13;4842962;29;19932;-71
2022/04/15 06:09:07;;;;;;;;;;;;;;;10.61;57.38;99944.38;4843425;29;19947;-70
2022/04/15 06:11:37;;;;;;;;;;;;;;;10.55;57.60;99934.16;4846579;29;19932;-70
2022/04/15 06:14:06;;;;;;;;;;;;;;;10.58;58.32;99939.25;4847104;29;19980;-71
2022/04/15 06:16:37;;;;;;;;;;;;;;;10.63;58.63;99952.91;4847126;29;19975;-71
2022/04/15 06:19:06;;;;;;;;;;;;;;;10.67;58.67;99954.63;4815719;29;19925;-71
2022/04/15 06:21:51;;;;;;;;;;;;;;;10.77;59.57;99965.72;4846836;29;19946;-70
2022/04/15 06:24:20;;;;;;;;;;;;;;;10.86;60.56;99975.09;4846709;29;20436;-70
2022/04/15 06:26:50;;;;;;;;;;;;;;;10.84;60.93;99976.78;4846550;29;19924;-72
2022/04/15 06:29:19;;;;;;;;;;;;;;;10.85;61.26;99978.47;4846679;29;19931;-72
2022/04/15 06:31:49;;;;;;;;;;;;;;;10.86;62.04;99980.19;4846570;29;19924;-72
2022/04/15 06:34:17;;;;;;;;;;;;;;;10.90;61.93;99981.91;4830131;29;19925;-71
2022/04/15 06:36:46;;;;;;;;;;;;;;;10.77;61.82;99976.75;4829927;29;19930;-70
2022/04/15 06:39:15;;;;;;;;;;;;;;;10.70;62.34;99985.25;4830210;29;19925;-69
2022/04/15 06:41:44;;;;;;;;;;;;;;;10.68;62.48;99981.84;4846392;29;19924;-70
2022/04/15 06:44:13;;;;;;;;;;;;;;;10.74;62.19;99994.66;4846644;29;20284;-70
2022/04/15 06:46:42;;;;;;;;;;;;;;;10.75;62.54;99998.88;4846524;29;20363;-71
2022/04/15 06:49:12;;;;;;;;;;;;;;;10.76;62.85;99994.63;4846551;29;19935;-69
2022/04/15 06:51:42;;;;;;;;;;;;;;;10.73;62.72;99985.28;4846281;29;20383;-72
2022/04/15 06:54:11;;;;;;;;;;;;;;;10.76;62.77;99979.31;4829908;29;19928;-72
2022/04/15 06:56:39;;;;;;;;;;;;;;;10.75;62.68;99972.50;4845783;29;19924;-71
2022/04/15 06:59:08;;;;;;;;;;;;;;;10.72;62.28;99967.41;4846144;29;20019;-71
2022/04/15 07:01:37;;;;;;;;;;;;;;;10.68;62.83;99971.63;4846259;29;20081;-71
2022/04/15 07:04:06;;;;;;;;;;;;;;;10.62;62.66;99965.66;4846014;29;19924;-71
2022/04/15 07:06:36;;;;;;;;;;;;;;;10.55;62.83;99975.00;4846024;29;19925;-71
2022/04/15 07:09:04;;;;;;;;;;;;;;;10.59;62.87;99975.84;4845898;29;19925;-71
2022/04/15 07:11:33;;;;;;;;;;;;;;;10.58;63.18;99959.69;4829515;29;19925;-72
2022/04/15 07:14:03;;;;;;;;;;;;;;;10.56;63.03;99952.88;4829510;29;19925;-71
2022/04/15 07:16:34;;;;;;;;;;;;;;;10.63;63.61;99952.91;4846116;29;19924;-71
2022/04/15 07:19:07;;;;;;;;;;;;;;;10.69;63.30;99947.81;4845639;29;19925;-71
2022/04/15 07:21:38;;;;;;;;;;;;;;;10.72;63.28;99940.16;4845490;29;19986;-72
2022/04/15 07:24:07;;;;;;;;;;;;;;;10.73;63.14;99934.22;4845682;29;19925;-72
2022/04/15 07:26:36;;;;;;;;;;;;;;;10.72;63.36;99942.69;4845542;29;19925;-71
2022/04/15 07:29:05;;;;;;;;;;;;;;;10.75;63.44;99937.63;4845488;29;20295;-71
2022/04/15 07:31:34;;;;;;;;;;;;;;;10.82;63.74;99942.75;4845854;29;19929;-72
2022/04/15 07:34:03;;;;;;;;;;;;;;;10.90;64.43;99921.47;4846126;29;19925;-72
2022/04/15 07:39:14;;;;;;;;;;;;;;;10.96;65.55;99895.13;4846094;29;19931;-73
2022/04/15 07:41:45;;;;;;;;;;;;;;;10.96;65.91;99890.00;4845234;29;20371;-72
2022/04/15 07:44:13;;;;;;;;;;;;;;;10.91;65.68;99876.38;4845313;29;19928;-73
2022/04/15 07:46:43;;;;;;;;;;;;;;;10.91;66.13;99861.91;4845494;29;20360;-73
2022/04/15 07:49:12;;;;;;;;;;;;;;;10.93;66.61;99846.59;4845195;29;19976;-73
2022/04/15 07:51:41;;;;;;;;;;;;;;;11.05;66.87;99838.91;4845672;29;19928;-73
2022/04/15 07:54:10;;;;;;;;;;;;;;;11.15;65.64;99853.41;4845382;29;19932;-73
2022/04/15 07:56:40;;;;;;;;;;;;;;;11.34;65.33;99865.31;4845430;29;19932;-73
2022/04/15 07:59:09;;;;;;;;;;;;;;;11.49;64.75;99862.75;4845292;29;19986;-73
2022/04/15 08:01:38;;;;;;;;;;;;;;;11.67;64.13;99883.16;4844982;29;19924;-73
2022/04/15 08:04:07;;;;;;;;;;;;;;;11.85;64.70;99895.91;4844968;29;19974;-73
2022/04/15 08:06:36;;;;;;;;;;;;;;;11.99;64.50;99908.69;4845093;29;19936;-73
2022/04/15 08:09:04;;;;;;;;;;;;;;;12.10;64.61;99889.88;4845221;29;20361;-72
2022/04/15 08:11:33;;;;;;;;;;;;;;;12.19;64.30;99903.50;4844827;29;19928;-71
2022/04/15 08:14:04;;;;;;;;;;;;;;;12.34;64.20;99918.78;4844734;29;19928;-72
2022/04/15 08:16:32;;;;;;;;;;;;;;;12.49;64.48;99923.84;4845132;29;19951;-73
2022/04/15 08:19:01;;;;;;;;;;;;;;;12.64;64.28;99923.78;4844962;29;19957;-72
2022/04/15 08:21:31;;;;;;;;;;;;;;;12.75;64.08;99922.00;4844998;29;19935;-72
2022/04/15 08:24:01;;;;;;;;;;;;;;;12.90;64.15;99914.25;4844563;29;19925;-72
2022/04/15 08:26:30;;;;;;;;;;;;;;;12.99;63.69;99919.28;4844844;29;19924;-73
2022/04/15 08:28:59;;;;;;;;;;;;;;;13.03;63.26;99931.22;4844835;29;19924;-72
2022/04/15 08:31:29;;;;;;;;;;;;;;;13.09;63.68;99918.41;4844361;29;19970;-72
2022/04/15 08:33:58;;;;;;;;;;;;;;;13.17;63.13;99921.75;4844110;29;20355;-72
2022/04/15 08:36:27;;;;;;;;;;;;;;;13.21;62.20;99918.31;4844294;29;20377;-72
2022/04/15 08:38:56;;;;;;;;;;;;;;;13.23;61.49;99926.84;4844547;29;20401;-72
2022/04/15 08:41:24;;;;;;;;;;;;;;;13.29;61.03;99937.03;4844188;29;20023;-72
2022/04/15 08:43:54;;;;;;;;;;;;;;;13.39;60.34;99933.53;4844168;29;19924;-72
2022/04/15 08:46:23;;;;;;;;;;;;;;;13.47;60.29;99930.06;4844068;29;19928;-73
2022/04/15 08:48:53;;;;;;;;;;;;;;;13.43;60.24;99940.38;4827993;29;20363;-72
2022/04/15 08:51:22;;;;;;;;;;;;;;;13.33;59.89;99918.22;4844198;29;20367;-72
2022/04/15 08:53:54;;;;;;;;;;;;;;;13.47;59.64;99941.19;4844252;29;20337;-73
2022/04/15 08:56:24;;;;;;;;;;;;;;;13.50;59.84;99925.78;4844321;29;19981;-72
2022/04/15 08:58:53;;;;;;;;;;;;;;;13.57;59.58;99932.53;4844218;29;19935;-72
2022/04/15 09:01:21;;;;;;;;;;;;;;;13.61;59.33;99923.09;4843913;29;19925;-72
2022/04/15 09:03:50;;;;;;;;;;;;;;;13.70;58.76;99930.72;4843852;29;20015;-72
2022/04/15 09:06:20;;;;;;;;;;;;;;;13.79;58.37;99933.19;4844129;29;19949;-73
2022/04/15 09:09:00;;;;;;;;;;;;;;;13.89;59.25;99940.78;4844002;29;20011;-72
2022/04/15 09:11:32;;;;;;;;;;;;;;;13.98;58.51;99929.59;4844034;29;20019;-74
2022/04/15 09:14:02;;;;;;;;;;;;;;;13.97;57.90;99933.00;4827817;29;20015;-73
2022/04/15 09:16:32;;;;;;;;;;;;;;;14.08;57.92;99934.59;4843731;29;20377;-72
2022/04/15 09:19:00;;;;;;;;;;;;;;;14.17;56.97;99930.22;4827373;29;19924;-74
2022/04/15 09:21:31;;;;;;;;;;;;;;;14.15;56.86;99932.81;4843540;29;19925;-72
2022/04/15 09:23:59;;;;;;;;;;;;;;;14.12;56.71;99932.84;4843562;29;19980;-72
2022/04/15 09:26:28;;;;;;;;;;;;;;;14.21;56.69;99932.75;4827520;29;19980;-73
2022/04/15 09:28:56;;;;;;;;;;;;;;;14.30;56.54;99927.53;4843310;29;19924;-72
2022/04/15 09:31:26;;;;;;;;;;;;;;;14.23;55.97;99931.00;4843456;29;19925;-74
2022/04/15 09:33:56;;;;;;;;;;;;;;;14.17;56.31;99933.66;4843746;29;19924;-73
2022/04/15 09:36:29;;;;;;;;;;;;;;;14.24;56.14;99948.13;4843136;29;19924;-72
2022/04/15 09:39:04;;;;;;;;;;;;;;;14.39;56.08;99935.13;4843324;29;20019;-72
2022/04/15 09:41:32;;;;;;;;;;;;;;;14.45;55.79;99935.06;4843682;29;19977;-72
2022/04/15 09:44:02;;;;;;;;;;;;;;;14.43;55.07;99934.22;4843278;29;20371;-72
2022/04/15 09:46:31;;;;;;;;;;;;;;;14.44;55.57;99938.50;4843442;29;20280;-71
2022/04/15 09:49:02;;;;;;;;;;;;;;;14.54;55.66;99940.06;4827038;29;19967;-74
2022/04/15 09:51:33;;;;;;;;;;;;;;;14.54;56.51;99934.94;4842936;29;19976;-71
2022/04/15 09:54:04;;;;;;;;;;;;;;;14.55;55.96;99939.22;4843478;29;19981;-72
2022/04/15 09:56:34;;;;;;;;;;;;;;;14.53;56.15;99940.94;4843565;29;19924;-72
2022/04/15 09:59:08;;;;;;;;;;;;;;;14.50;56.99;99933.28;4843151;29;19931;-72
2022/04/15 10:01:40;;;;;;;;;;;;;;;14.52;57.66;99931.53;4826905;29;19948;-72
2022/04/15 10:04:10;;;;;;;;;;;;;;;14.61;57.42;99926.28;4843120;29;20003;-71
2022/04/15 10:06:40;;;;;;;;;;;;;;;14.65;57.31;99927.09;4843052;29;20015;-71
2022/04/15 10:09:12;;;;;;;;;;;;;;;14.67;57.85;99926.22;4843051;29;19931;-72
2022/04/15 10:11:43;;;;;;;;;;;;;;;14.72;57.79;99926.13;4811899;29;19963;-72
2022/04/15 10:14:12;;;;;;;;;;;;;;;14.77;58.02;99930.34;4843225;29;19953;-71
2022/04/15 10:16:43;;;;;;;;;;;;;;;14.73;56.46;99927.84;4826782;29;19973;-73
2022/04/15 10:19:12;;;;;;;;;;;;;;;14.78;56.94;99926.91;4843029;29;19930;-71
2022/04/15 10:21:41;;;;;;;;;;;;;;;14.88;57.25;99929.34;4843253;29;20295;-71
2022/04/15 10:24:10;;;;;;;;;;;;;;;14.90;57.23;99923.31;4842902;29;19932;-71
2022/04/15 10:26:41;;;;;;;;;;;;;;;14.97;57.04;99926.66;4826704;29;19931;-73
2022/04/15 10:29:12;;;;;;;;;;;;;;;15.01;57.00;99918.03;4842894;29;20016;-73
2022/04/15 10:31:41;;;;;;;;;;;;;;;15.10;56.44;99920.44;4843243;29;20431;-72
2022/04/15 10:34:14;;;;;;;;;;;;;;;15.18;56.59;99922.03;4842842;29;19979;-71
2022/04/15 10:36:47;;;;;;;;;;;;;;;15.21;56.02;99916.00;4842743;29;20331;-71
2022/04/15 10:39:19;;;;;;;;;;;;;;;15.33;56.21;99911.50;4842889;29;19983;-71
2022/04/15 10:41:57;;;;;;;;;;;;;;;15.40;56.48;99907.94;4842843;29;19924;-71
2022/04/15 10:44:26;;;;;;;;;;;;;;;15.48;56.75;99910.44;4842935;29;19931;-71
2022/04/15 10:46:58;;;;;;;;;;;;;;;15.55;56.90;99909.44;4843116;29;19981;-71
2022/04/15 10:49:29;;;;;;;;;;;;;;;15.65;56.99;99903.25;4842834;29;19951;-71
2022/04/15 10:52:01;;;;;;;;;;;;;;;15.73;56.96;99905.72;4842719;29;20383;-72
2022/04/15 10:54:31;;;;;;;;;;;;;;;15.84;56.82;99904.63;4842756;29;19924;-71
2022/04/15 10:57:02;;;;;;;;;;;;;;;15.85;56.41;99901.19;4813229;29;20367;-72
2022/04/15 11:02:14;;;;;;;;;;;;;;;15.99;57.30;99899.22;4846053;29;19924;-71
2022/04/15 11:04:49;;;;;;;;;;;;;;;16.12;57.31;99904.13;4845898;29;19958;-73
2022/04/15 11:07:25;;;;;;;;;;;;;;;16.18;56.62;99902.25;4846259;29;19957;-73
2022/04/15 11:09:54;;;;;;;;;;;;;;;16.36;56.79;99901.06;4845809;29;19996;-72
2022/04/15 11:12:35;;;;;;;;;;;;;;;16.52;56.65;99898.16;4829674;29;19925;-71
2022/04/15 11:15:06;;;;;;;;;;;;;;;16.82;56.34;99904.34;4845800;29;20012;-73
2022/04/15 11:17:39;;;;;;;;;;;;;;;17.05;56.49;99891.81;4846072;29;20040;-73
2022/04/15 11:20:08;;;;;;;;;;;;;;;17.36;55.91;99897.91;4845702;29;19931;-71
2022/04/15 11:22:40;;;;;;;;;;;;;;;17.58;54.61;99903.41;4846006;29;19929;-73
2022/04/15 11:25:10;;;;;;;;;;;;;;;17.71;54.18;99894.44;4845599;29;19947;-73
2022/04/15 11:27:41;;;;;;;;;;;;;;;17.80;53.98;99898.53;4845609;29;19924;-73
2022/04/15 11:30:15;;;;;;;;;;;;;;;17.83;53.20;99888.13;4845795;29;20356;-72
2022/04/15 11:32:47;;;;;;;;;;;;;;;18.02;52.99;99899.63;4845607;29;19931;-72
2022/04/15 11:35:27;;;;;;;;;;;;;;;18.01;52.64;99900.53;4845359;29;19960;-72
2022/04/15 11:37:57;;;;;;;;;;;;;;;18.05;52.47;99900.41;4845361;29;20436;-72
2022/04/15 11:40:28;;;;;;;;;;;;;;;17.96;52.88;99894.66;4829220;29;19925;-72
2022/04/15 11:42:58;;;;;;;;;;;;;;;17.83;52.43;99888.97;4845642;29;19932;-72
2022/04/15 11:45:39;;;;;;;;;;;;;;;17.72;52.33;99890.16;4828561;29;19959;-72
2022/04/15 11:48:19;;;;;;;;;;;;;;;17.84;52.55;99884.66;4845299;29;19947;-72
2022/04/15 11:50:48;;;;;;;;;;;;;;;17.92;52.44;99882.72;4845276;29;19932;-71
2022/04/15 11:53:18;;;;;;;;;;;;;;;17.80;52.06;99885.63;4845211;29;19935;-72
2022/04/15 11:55:48;;;;;;;;;;;;;;;17.80;52.74;99885.63;4845149;29;20447;-72
2022/04/15 11:58:16;;;;;;;;;;;;;;;17.88;52.48;99883.69;4845101;29;20537;-72
2022/04/15 12:00:52;;;;;;;;;;;;;;;17.90;52.02;99880.16;4828804;29;19924;-72
2022/04/15 12:03:21;;;;;;;;;;;;;;;17.73;51.47;99886.69;4845372;29;19924;-72
2022/04/15 12:05:51;;;;;;;;;;;;;;;17.63;52.17;99880.06;4845060;29;19974;-72
2022/04/15 12:08:21;;;;;;;;;;;;;;;17.70;51.97;99876.44;4827376;29;20342;-72
2022/04/15 12:10:50;;;;;;;;;;;;;;;17.87;51.49;99879.41;4844745;29;19924;-71
2022/04/15 12:13:19;;;;;;;;;;;;;;;18.07;51.08;99872.78;4828400;29;20328;-71
2022/04/15 12:15:48;;;;;;;;;;;;;;;18.29;50.78;99877.34;4844325;29;19936;-71
2022/04/15 12:18:18;;;;;;;;;;;;;;;18.57;50.61;99863.59;4844619;29;19970;-71
2022/04/15 12:20:47;;;;;;;;;;;;;;;18.76;50.16;99863.91;4844921;29;20363;-71
2022/04/15 12:23:16;;;;;;;;;;;;;;;18.86;49.83;99854.13;4844941;29;20286;-73
2022/04/15 12:26:07;;;;;;;;;;;;;;;18.94;49.44;99852.13;4844546;29;20031;-71
2022/04/15 12:31:25;;;;;;;;;;;;;;;19.09;49.35;99846.47;4844560;29;19976;-71
2022/04/15 12:34:00;;;;;;;;;;;;;;;19.20;49.27;99844.34;4844529;29;19975;-71
2022/04/15 12:36:39;;;;;;;;;;;;;;;19.27;48.94;99838.06;4844482;29;20011;-72
2022/04/15 12:39:08;;;;;;;;;;;;;;;19.66;49.22;99838.50;4844383;29;19929;-71
2022/04/15 12:41:45;;;;;;;;;;;;;;;19.88;48.53;99840.28;4844342;29;19924;-72
2022/04/15 12:44:15;;;;;;;;;;;;;;;19.79;48.16;99829.41;4844539;29;20279;-73
2022/04/15 12:46:44;;;;;;;;;;;;;;;19.60;48.45;99826.63;4844237;29;20360;-72
2022/04/15 12:49:24;;;;;;;;;;;;;;;19.54;48.72;99823.38;4844440;29;19928;-72
2022/04/15 12:51:58;;;;;;;;;;;;;;;19.41;48.40;99825.56;4844155;29;19925;-72
2022/04/15 12:54:27;;;;;;;;;;;;;;;19.11;49.01;99813.63;4844427;29;20291;-72
2022/04/15 12:56:56;;;;;;;;;;;;;;;19.00;49.23;99810.53;4844275;29;19960;-72
2022/04/15 12:59:25;;;;;;;;;;;;;;;18.94;49.53;99805.56;4844304;29;19925;-72
2022/04/15 13:01:53;;;;;;;;;;;;;;;18.92;49.76;99804.75;4844307;29;19946;-72
2022/04/15 13:04:23;;;;;;;;;;;;;;;18.86;49.93;99808.38;4844184;29;20290;-72
2022/04/15 13:06:51;;;;;;;;;;;;;;;18.93;50.08;99803.88;4844036;29;19924;-73
2022/04/15 13:09:23;;;;;;;;;;;;;;;18.86;50.31;99798.03;4843976;29;20360;-72
2022/04/15 13:11:53;;;;;;;;;;;;;;;18.86;50.52;99797.22;4844459;29;20288;-72
2022/04/15 13:14:22;;;;;;;;;;;;;;;18.80;49.94;99802.56;4843727;29;19924;-72